Time;durP1;ratioP1;P1;durP2;ratioP2;P2;SDS_P1;SDS_P2;PMS_P1;PMS_P2;Temp;Humidity;BMP_temperature;BMP_pressure;BME280_temperature;BME280_humidity;BME280_pressure;Samples;Min_cycle;Max_cycle;Signal;HPM_P1;HPM_P2
2022/11/16 00:01:26;;;;;;;15.40;10.40;;;11.10;99.90;;;;;;4910203;28;89269;-34
2022/11/16 00:03:54;;;;;;;10.43;9.45;;;11.10;99.90;;;;;;4918784;28;90387;-31
2022/11/16 00:06:22;;;;;;;10.65;9.63;;;11.10;99.90;;;;;;4921446;28;88233;-31
2022/11/16 00:11:38;;;;;;;11.85;10.38;;;11.00;99.90;;;;;;4920564;28;91122;-33
2022/11/16 00:14:04;;;;;;;12.13;10.25;;;11.00;99.90;;;;;;4921482;28;90742;-31
2022/11/16 00:16:31;;;;;;;13.57;10.20;;;11.00;99.90;;;;;;4921026;28;88501;-32
2022/11/16 00:18:59;;;;;;;11.88;10.65;;;11.10;99.90;;;;;;4921029;28;89574;-34
2022/11/16 00:21:25;;;;;;;12.43;11.07;;;11.10;99.90;;;;;;4921619;28;90152;-32
2022/11/16 00:23:51;;;;;;;11.25;10.15;;;11.00;99.90;;;;;;4936026;28;90723;-32
2022/11/16 00:26:17;;;;;;;11.65;10.52;;;11.00;99.90;;;;;;4921172;28;87674;-32
2022/11/16 00:28:42;;;;;;;13.23;11.85;;;11.00;99.90;;;;;;4920782;28;90233;-31
2022/11/16 00:31:09;;;;;;;11.90;9.88;;;11.00;99.90;;;;;;4921165;28;90519;-32
2022/11/16 00:33:35;;;;;;;12.43;11.25;;;11.10;99.90;;;;;;4921809;28;89287;-31
2022/11/16 00:36:03;;;;;;;11.88;10.70;;;11.10;99.90;;;;;;4920846;28;89631;-31
2022/11/16 00:38:28;;;;;;;15.60;10.23;;;11.00;99.90;;;;;;4920246;28;90481;-32
2022/11/16 00:40:54;;;;;;;12.25;10.88;;;11.00;99.90;;;;;;4920634;28;89698;-33
2022/11/16 00:43:20;;;;;;;11.90;10.43;;;11.10;99.90;;;;;;4920885;28;90820;-31
2022/11/16 00:45:45;;;;;;;13.07;11.13;;;11.10;99.90;;;;;;4920759;28;89022;-31
2022/11/16 00:48:11;;;;;;;12.43;11.15;;;11.00;99.90;;;;;;4920024;28;90787;-31
2022/11/16 00:50:37;;;;;;;10.98;9.65;;;11.10;99.90;;;;;;4919710;28;89507;-32
2022/11/16 00:53:04;;;;;;;12.25;10.85;;;11.10;99.90;;;;;;4921599;28;88928;-30
2022/11/16 00:55:30;;;;;;;13.02;11.57;;;11.10;99.90;;;;;;4921049;28;89729;-33
2022/11/16 00:57:55;;;;;;;11.18;10.07;;;11.20;99.90;;;;;;4920897;28;90245;-31
2022/11/16 01:00:21;;;;;;;10.95;9.80;;;11.10;99.90;;;;;;4917458;28;90903;-31
2022/11/16 01:02:47;;;;;;;9.98;9.07;;;11.20;99.90;;;;;;4909937;28;90011;-34
2022/11/16 01:05:13;;;;;;;11.18;10.05;;;11.10;99.90;;;;;;4920974;28;88335;-34
2022/11/16 01:07:39;;;;;;;10.63;9.52;;;11.10;99.90;;;;;;4920908;28;90330;-33
2022/11/16 01:10:08;;;;;;;13.07;11.77;;;11.10;99.90;;;;;;4920704;28;89753;-31
2022/11/16 01:12:34;;;;;;;11.00;10.00;;;11.10;99.90;;;;;;4920376;28;90258;-32
2022/11/16 01:14:59;;;;;;;10.40;9.40;;;11.10;99.90;;;;;;4920430;28;88619;-34
2022/11/16 01:17:25;;;;;;;11.13;9.73;;;11.10;99.90;;;;;;4920243;28;90212;-34
2022/11/16 01:19:50;;;;;;;10.05;9.05;;;11.10;99.90;;;;;;4921012;28;90000;-32
2022/11/16 01:22:16;;;;;;;13.15;10.23;;;11.10;99.90;;;;;;4920947;28;90274;-32
2022/11/16 01:24:42;;;;;;;11.18;10.02;;;11.00;99.90;;;;;;4919427;28;90348;-31
2022/11/16 01:27:07;;;;;;;12.45;10.68;;;11.20;99.90;;;;;;4920734;28;90591;-32
2022/11/16 01:29:33;;;;;;;13.63;9.48;;;11.10;99.90;;;;;;4919398;28;90131;-33
2022/11/16 01:31:59;;;;;;;10.30;9.30;;;11.10;99.90;;;;;;4920782;28;89278;-32
2022/11/16 01:34:24;;;;;;;11.52;10.13;;;11.20;99.90;;;;;;4920317;28;87591;-31
2022/11/16 01:36:50;;;;;;;11.23;10.23;;;11.10;99.90;;;;;;4920339;28;90320;-32
2022/11/16 01:39:15;;;;;;;10.77;9.10;;;11.10;99.90;;;;;;4919904;28;90667;-31
2022/11/16 01:41:42;;;;;;;10.68;8.18;;;11.30;99.90;;;;;;4921002;28;89532;-32
2022/11/16 01:44:14;;;;;;;9.48;8.40;;;11.30;99.90;;;;;;4921379;28;88441;-32
2022/11/16 01:46:40;;;;;;;11.07;9.98;;;11.30;99.90;;;;;;4920686;28;89855;-30
2022/11/16 01:49:13;;;;;;;14.10;8.65;;;11.20;99.90;;;;;;4919688;28;90604;-33
2022/11/16 01:51:44;;;;;;;10.75;9.15;;;11.20;99.90;;;;;;4920668;28;90691;-32
2022/11/16 01:54:12;;;;;;;13.27;10.00;;;11.20;99.90;;;;;;4920686;28;89058;-33
2022/11/16 01:56:40;;;;;;;9.60;8.65;;;11.20;99.90;;;;;;4919837;28;90095;-31
2022/11/16 01:59:06;;;;;;;14.57;9.88;;;11.20;99.90;;;;;;4920457;28;89826;-33
2022/11/16 02:01:31;;;;;;;12.77;9.95;;;11.10;99.90;;;;;;4914045;28;90698;-32
2022/11/16 02:03:57;;;;;;;10.57;9.30;;;11.10;99.90;;;;;;4925729;28;89368;-32
2022/11/16 02:06:25;;;;;;;9.45;8.60;;;11.10;99.90;;;;;;4926678;28;90600;-31
2022/11/16 02:12:33;;;;;;;9.98;9.07;;;11.20;99.90;;;;;;4926507;28;89265;-33
2022/11/16 02:15:27;;;;;;;10.18;9.00;;;11.20;99.90;;;;;;4926682;28;90083;-33
2022/11/16 02:18:14;;;;;;;10.38;9.38;;;11.10;99.90;;;;;;4926412;28;90709;-31
2022/11/16 02:20:51;;;;;;;10.90;9.67;;;11.10;99.90;;;;;;4925995;28;89993;-30
2022/11/16 02:23:44;;;;;;;10.13;9.05;;;11.10;99.90;;;;;;4927356;28;89801;-32
2022/11/16 02:26:32;;;;;;;8.43;7.57;;;11.20;99.90;;;;;;4926495;28;89112;-33
2022/11/16 02:29:19;;;;;;;9.25;8.48;;;11.10;99.90;;;;;;4926511;28;90600;-33
2022/11/16 02:32:03;;;;;;;11.27;8.27;;;11.10;99.90;;;;;;4925932;28;89770;-31
2022/11/16 02:34:38;;;;;;;14.07;8.80;;;11.20;99.90;;;;;;4926652;28;90033;-32
2022/11/16 02:37:05;;;;;;;7.65;6.68;;;11.20;99.90;;;;;;4926364;28;89043;-31
2022/11/16 02:39:33;;;;;;;12.68;8.65;;;11.20;99.90;;;;;;4925429;28;89606;-32
2022/11/16 02:42:01;;;;;;;11.03;9.30;;;11.20;99.90;;;;;;4926034;28;89998;-31
2022/11/16 02:44:33;;;;;;;18.53;8.70;;;11.10;99.90;;;;;;4926365;28;90664;-34
2022/11/16 02:47:03;;;;;;;9.40;8.45;;;11.20;99.90;;;;;;4926619;28;88297;-31
2022/11/16 02:49:32;;;;;;;11.25;9.02;;;11.10;99.90;;;;;;4925889;28;90505;-34
2022/11/16 02:51:57;;;;;;;;;;;11.30;99.90;;;;;;4926826;28;89552;-33
2022/11/16 02:54:23;;;;;;;11.88;9.18;;;11.20;99.90;;;;;;4927463;28;89218;-32
2022/11/16 02:57:01;;;;;;;11.80;9.10;;;11.20;99.90;;;;;;4926504;28;89536;-31
2022/11/16 02:59:32;;;;;;;14.07;9.93;;;11.20;99.90;;;;;;4926465;28;91160;-33
2022/11/16 03:02:22;;;;;;;8.85;8.02;;;11.10;99.90;;;;;;4912029;28;90224;-32
2022/11/16 03:04:52;;;;;;;11.38;8.43;;;11.10;99.90;;;;;;4926010;28;90371;-31
2022/11/16 03:07:24;;;;;;;10.73;8.77;;;11.10;99.90;;;;;;4925578;28;89919;-30
2022/11/16 03:09:50;;;;;;;9.82;8.82;;;11.00;99.90;;;;;;4926030;28;89748;-32
2022/11/16 03:12:21;;;;;;;9.95;8.95;;;11.20;99.90;;;;;;4922204;28;90160;-33
2022/11/16 03:14:53;;;;;;;10.02;9.07;;;11.00;99.90;;;;;;4922413;28;89387;-32
2022/11/16 03:17:36;;;;;;;10.00;9.10;;;11.00;99.90;;;;;;4923463;28;89399;-32
2022/11/16 03:20:13;;;;;;;10.63;9.55;;;11.10;99.90;;;;;;4922535;28;90479;-34
2022/11/16 03:22:43;;;;;;;8.63;7.82;;;11.10;99.90;;;;;;4922503;28;90040;-32
2022/11/16 03:25:11;;;;;;;13.68;10.52;;;11.10;99.90;;;;;;4923236;28;89683;-30
2022/11/16 03:28:12;;;;;;;9.75;8.80;;;11.10;99.90;;;;;;4922308;28;88644;-32
2022/11/16 03:31:00;;;;;;;11.98;8.90;;;11.10;99.90;;;;;;4911547;28;89904;-33
2022/11/16 03:33:43;;;;;;;9.93;8.57;;;11.00;99.90;;;;;;4921973;28;91056;-31
2022/11/16 03:36:18;;;;;;;11.50;9.73;;;11.00;99.90;;;;;;4922085;28;90075;-33
2022/11/16 03:38:49;;;;;;;11.95;10.73;;;11.00;99.90;;;;;;4909716;28;89730;-31
2022/11/16 03:41:17;;;;;;;10.48;9.48;;;11.00;99.90;;;;;;4921884;28;90127;-32
2022/11/16 03:43:44;;;;;;;11.95;10.80;;;11.00;99.90;;;;;;4922005;28;90214;-33
2022/11/16 03:46:10;;;;;;;12.32;11.15;;;10.90;99.90;;;;;;4921517;28;89911;-31
2022/11/16 03:48:38;;;;;;;12.00;10.35;;;10.90;99.90;;;;;;4911908;28;88868;-33
2022/11/16 03:51:05;;;;;;;15.88;10.20;;;10.90;99.90;;;;;;4918180;28;90526;-32
2022/11/16 03:53:30;;;;;;;10.35;9.32;;;11.00;99.90;;;;;;4922235;28;89714;-33
2022/11/16 03:55:56;;;;;;;18.25;10.57;;;10.90;99.90;;;;;;4921748;28;89543;-32
2022/11/16 03:58:22;;;;;;;12.40;11.13;;;10.90;99.90;;;;;;4920899;28;90464;-32
2022/11/16 04:00:47;;;;;;;13.02;11.23;;;10.90;99.90;;;;;;4921996;28;90794;-31
2022/11/16 04:03:13;;;;;;;13.65;11.93;;;10.90;99.90;;;;;;4921206;28;89506;-32
2022/11/16 04:25:29;;;;;;;13.43;12.13;;;10.80;99.90;;;;;;4917444;28;90840;-32
2022/11/16 04:28:15;;;;;;;14.23;12.93;;;10.80;99.90;;;;;;4917906;28;90015;-33
2022/11/16 04:38:57;;;;;;;14.07;12.75;;;10.80;99.90;;;;;;4918044;28;90057;-30
2022/11/16 04:44:07;;;;;;;15.93;13.98;;;10.80;99.90;;;;;;4920722;28;90141;-32
2022/11/16 04:49:17;;;;;;;16.70;14.88;;;10.70;99.90;;;;;;4921212;28;89650;-33
2022/11/16 04:51:43;;;;;;;15.10;13.43;;;10.70;99.90;;;;;;4919796;28;88968;-33
2022/11/16 04:54:08;;;;;;;14.43;13.10;;;10.70;99.90;;;;;;4920573;28;89841;-33
2022/11/16 04:56:34;;;;;;;17.30;15.45;;;10.70;99.90;;;;;;4920164;28;89604;-33
2022/11/16 04:58:59;;;;;;;17.48;12.98;;;10.70;99.90;;;;;;4920011;28;90166;-34
2022/11/16 05:04:09;;;;;;;17.92;14.38;;;10.70;99.90;;;;;;4919705;28;90295;-31
2022/11/16 05:06:35;;;;;;;15.82;13.57;;;10.70;99.90;;;;;;4920243;28;89541;-33
2022/11/16 05:09:01;;;;;;;15.48;13.88;;;10.70;99.90;;;;;;4920507;28;89554;-33
2022/11/16 05:11:26;;;;;;;17.15;15.20;;;10.70;99.90;;;;;;4919562;28;88925;-33
2022/11/16 05:13:52;;;;;;;18.55;14.60;;;10.70;99.90;;;;;;4920385;28;90743;-32
2022/11/16 05:16:17;;;;;;;15.75;14.15;;;10.70;99.90;;;;;;4919250;28;90546;-33
2022/11/16 05:18:43;;;;;;;19.17;15.88;;;10.70;99.90;;;;;;4920788;28;90746;-33
2022/11/16 05:21:09;;;;;;;16.70;14.80;;;10.70;99.90;;;;;;4920279;28;89132;-31
2022/11/16 05:26:19;;;;;;;15.32;13.73;;;10.70;99.90;;;;;;4919785;28;89905;-34
2022/11/16 05:28:44;;;;;;;15.25;13.77;;;10.80;99.90;;;;;;4919867;28;89273;-34
2022/11/16 05:31:10;;;;;;;15.27;13.65;;;10.80;99.90;;;;;;4920306;28;89019;-32
2022/11/16 05:33:35;;;;;;;14.52;13.13;;;10.80;99.90;;;;;;4919141;28;90088;-33
2022/11/16 05:36:01;;;;;;;17.73;14.25;;;10.70;99.90;;;;;;4919630;28;90065;-33
2022/11/16 05:38:27;;;;;;;17.55;15.45;;;10.70;99.90;;;;;;4919597;28;89034;-31
2022/11/16 05:40:52;;;;;;;15.80;14.25;;;10.70;99.90;;;;;;4906217;28;90741;-34
2022/11/16 05:43:18;;;;;;;16.30;14.77;;;10.60;99.90;;;;;;4920422;28;90259;-32
2022/11/16 05:45:43;;;;;;;17.52;15.00;;;10.70;99.90;;;;;;4919688;28;89847;-34
2022/11/16 05:48:09;;;;;;;18.80;15.23;;;10.60;99.90;;;;;;4919490;28;89557;-32
2022/11/16 05:50:34;;;;;;;15.93;12.82;;;10.60;99.90;;;;;;4919618;28;89353;-34
2022/11/16 05:53:00;;;;;;;17.65;15.93;;;10.60;99.90;;;;;;4920313;28;90179;-32
2022/11/16 05:55:25;;;;;;;15.38;13.88;;;10.60;99.90;;;;;;4919134;28;89825;-31
2022/11/16 05:57:51;;;;;;;17.25;15.45;;;10.60;99.90;;;;;;4919726;28;90284;-33
2022/11/16 06:00:17;;;;;;;20.70;15.10;;;10.60;99.90;;;;;;4919827;28;89753;-32
2022/11/16 06:02:42;;;;;;;21.42;16.23;;;10.60;99.90;;;;;;4919526;28;90040;-33
2022/11/16 06:05:08;;;;;;;15.68;14.18;;;10.60;99.90;;;;;;4918891;28;90338;-32
2022/11/16 06:07:34;;;;;;;16.30;14.77;;;10.60;99.90;;;;;;4919367;28;90849;-34
2022/11/16 06:09:59;;;;;;;16.17;14.48;;;10.70;99.90;;;;;;4919678;28;88152;-32
2022/11/16 06:12:25;;;;;;;15.73;14.15;;;10.70;99.90;;;;;;4919184;28;94609;-32
2022/11/16 06:14:50;;;;;;;16.50;14.65;;;10.60;99.90;;;;;;4919430;28;90584;-31
2022/11/16 06:17:16;;;;;;;14.35;12.82;;;10.60;99.90;;;;;;4919426;28;89824;-31
2022/11/16 06:19:41;;;;;;;16.05;14.35;;;10.70;99.90;;;;;;4919615;28;89607;-32
2022/11/16 06:22:07;;;;;;;18.85;16.85;;;10.60;99.90;;;;;;4919644;28;90137;-33
2022/11/16 06:24:32;;;;;;;19.90;15.75;;;10.60;99.90;;;;;;4919038;28;89951;-32
2022/11/16 06:26:58;;;;;;;17.42;15.60;;;10.70;99.90;;;;;;4920049;28;89655;-32
2022/11/16 06:29:24;;;;;;;16.63;15.02;;;10.70;99.90;;;;;;4918735;28;89188;-33
2022/11/16 06:31:49;;;;;;;14.35;12.98;;;10.70;99.90;;;;;;4919882;28;89504;-32
2022/11/16 06:34:15;;;;;;;16.60;15.13;;;10.70;99.90;;;;;;4919108;28;90373;-34
2022/11/16 06:36:41;;;;;;;18.80;17.00;;;10.70;99.90;;;;;;4919343;28;89316;-32
2022/11/16 06:39:06;;;;;;;16.13;14.55;;;10.60;99.90;;;;;;4915193;28;89869;-32
2022/11/16 06:41:33;;;;;;;17.60;16.05;;;10.60;99.90;;;;;;4909836;28;90392;-32
2022/11/16 06:43:58;;;;;;;19.15;17.17;;;10.60;99.90;;;;;;4919481;28;90207;-33
2022/11/16 06:46:24;;;;;;;18.00;15.80;;;10.70;99.90;;;;;;4918956;28;89393;-32
2022/11/16 06:48:50;;;;;;;19.65;17.15;;;10.60;99.90;;;;;;4922871;28;88144;-32
2022/11/16 06:51:15;;;;;;;19.20;16.77;;;10.60;99.90;;;;;;4922345;28;90250;-33
2022/11/16 06:53:41;;;;;;;20.20;17.92;;;10.60;99.90;;;;;;4922191;28;90494;-31
2022/11/16 06:56:08;;;;;;;20.80;18.25;;;10.60;99.90;;;;;;4922804;28;90098;-32
2022/11/16 06:58:34;;;;;;;21.85;18.92;;;10.60;99.90;;;;;;4922047;28;89464;-31
2022/11/16 07:01:10;;;;;;;23.83;18.48;;;10.60;99.90;;;;;;4922177;28;90251;-33
2022/11/16 07:03:36;;;;;;;17.02;14.90;;;10.60;99.90;;;;;;4922554;28;89782;-32
2022/11/16 07:06:09;;;;;;;23.65;15.55;;;10.60;99.90;;;;;;4921449;28;89358;-31
2022/11/16 07:08:35;;;;;;;10.57;9.57;;;10.60;99.90;;;;;;4922406;28;88769;-32
2022/11/16 07:11:04;;;;;;;9.38;8.52;;;10.60;99.90;;;;;;4922577;28;90376;-34
2022/11/16 07:13:31;;;;;;;8.40;7.60;;;10.60;99.90;;;;;;4922709;28;89619;-33
2022/11/16 07:16:08;;;;;;;8.83;7.80;;;10.70;99.90;;;;;;4923323;28;89364;-32
2022/11/16 07:18:35;;;;;;;9.98;8.98;;;10.70;99.90;;;;;;4922289;28;89387;-32
2022/11/16 07:21:15;;;;;;;12.38;11.07;;;10.60;99.90;;;;;;4922120;28;90237;-32
2022/11/16 07:23:41;;;;;;;12.00;10.98;;;10.60;99.90;;;;;;4915846;28;90788;-32
2022/11/16 07:26:08;;;;;;;13.68;12.27;;;10.60;99.90;;;;;;4925995;28;89546;-32
2022/11/16 07:28:34;;;;;;;9.45;8.52;;;10.60;99.90;;;;;;4925099;28;88701;-33
2022/11/16 07:31:05;;;;;;;11.73;10.63;;;10.60;99.90;;;;;;4924635;28;90101;-33
2022/11/16 07:33:31;;;;;;;12.40;11.27;;;10.60;99.90;;;;;;4922677;28;89685;-32
2022/11/16 07:36:05;;;;;;;11.45;10.32;;;10.50;99.90;;;;;;4924156;28;89463;-33
2022/11/16 07:38:31;;;;;;;15.15;12.40;;;10.50;99.90;;;;;;4915584;28;88503;-32
2022/11/16 07:41:01;;;;;;;12.63;11.38;;;10.50;99.90;;;;;;4906800;28;88842;-32
2022/11/16 07:43:30;;;;;;;12.77;11.43;;;10.50;99.90;;;;;;4906537;28;90669;-33
2022/11/16 07:46:02;;;;;;;15.18;13.65;;;10.50;99.90;;;;;;4937306;28;89509;-33
2022/11/16 07:48:28;;;;;;;14.27;12.90;;;10.50;99.90;;;;;;4941492;28;90144;-32
2022/11/16 07:50:53;;;;;;;14.68;13.20;;;10.50;99.90;;;;;;4940138;28;89898;-34
2022/11/16 07:53:19;;;;;;;18.33;16.35;;;10.50;99.90;;;;;;4941127;28;89343;-31
2022/11/16 07:55:52;;;;;;;17.42;15.80;;;10.50;99.90;;;;;;4939935;28;89693;-32
2022/11/16 07:58:18;;;;;;;17.27;15.68;;;10.50;99.90;;;;;;4940744;28;89254;-32
2022/11/16 08:00:43;;;;;;;19.20;17.33;;;10.50;99.90;;;;;;4940496;28;91068;-34
2022/11/16 08:03:09;;;;;;;18.35;16.52;;;10.50;99.90;;;;;;4940885;28;89673;-33
2022/11/16 08:05:34;;;;;;;23.52;16.17;;;10.60;99.90;;;;;;4939779;28;89490;-32
2022/11/16 08:08:00;;;;;;;19.27;16.48;;;10.50;99.90;;;;;;4940295;28;90408;-32
2022/11/16 08:10:25;;;;;;;41.28;22.88;;;10.50;99.90;;;;;;4928608;28;90213;-31
2022/11/16 08:12:51;;;;;;;23.10;17.55;;;10.50;99.90;;;;;;4922035;28;92218;-32
2022/11/16 08:15:17;;;;;;;18.85;16.60;;;10.50;99.90;;;;;;4925337;28;89709;-31
2022/11/16 08:17:42;;;;;;;20.58;18.55;;;10.50;99.90;;;;;;4928491;28;89982;-33
2022/11/16 08:20:08;;;;;;;20.63;16.50;;;10.60;99.90;;;;;;4925092;28;90333;-33
2022/11/16 08:22:34;;;;;;;16.65;15.05;;;10.50;99.90;;;;;;4925915;28;89721;-32
2022/11/16 08:24:59;;;;;;;17.13;15.43;;;10.50;99.90;;;;;;4927497;28;89451;-34
2022/11/16 08:27:25;;;;;;;19.88;17.67;;;10.50;99.90;;;;;;4925051;28;89166;-33
2022/11/16 08:29:51;;;;;;;18.52;15.07;;;10.50;99.90;;;;;;4927680;28;89831;-33
2022/11/16 08:32:16;;;;;;;20.05;17.98;;;10.50;99.90;;;;;;4924210;28;90599;-32
2022/11/16 08:34:42;;;;;;;20.17;18.15;;;10.50;99.90;;;;;;4927904;28;90909;-32
2022/11/16 08:37:07;;;;;;;21.60;18.98;;;10.50;99.90;;;;;;4925033;28;89369;-32
2022/11/16 08:39:33;;;;;;;18.27;16.20;;;10.60;99.90;;;;;;4916412;28;90145;-33
2022/11/16 08:41:58;;;;;;;19.65;17.20;;;10.60;99.90;;;;;;4915331;28;89919;-33
2022/11/16 08:44:24;;;;;;;17.95;16.13;;;10.60;99.90;;;;;;4920399;28;88994;-32
2022/11/16 08:46:49;;;;;;;20.90;18.80;;;10.60;99.90;;;;;;4921204;28;89258;-31
2022/11/16 08:49:15;;;;;;;18.65;16.90;;;10.70;99.90;;;;;;4921242;28;90500;-32
2022/11/16 08:51:40;;;;;;;20.23;17.95;;;10.70;99.90;;;;;;4919985;28;89049;-33
2022/11/16 08:54:06;;;;;;;22.30;16.58;;;10.70;99.90;;;;;;4920416;28;89099;-33
2022/11/16 08:56:32;;;;;;;20.85;16.67;;;10.70;99.90;;;;;;4920090;28;89232;-33
2022/11/16 08:58:58;;;;;;;21.85;19.70;;;10.70;99.90;;;;;;4920331;28;90485;-32
2022/11/16 09:01:25;;;;;;;19.08;17.20;;;10.70;99.90;;;;;;4920772;28;89665;-31
2022/11/16 09:03:52;;;;;;;20.50;18.33;;;10.70;99.90;;;;;;4920104;28;89908;-32
2022/11/16 09:06:17;;;;;;;20.73;18.52;;;10.70;99.90;;;;;;4920753;28;88492;-34
2022/11/16 09:08:44;;;;;;;19.85;17.27;;;10.80;99.90;;;;;;4919866;28;89871;-33
2022/11/16 09:11:14;;;;;;;22.17;19.25;;;10.80;99.90;;;;;;4941666;23;87769;-31
2022/11/16 09:13:42;;;;;;;19.05;17.05;;;10.80;99.90;;;;;;4902130;28;90049;-32
2022/11/16 09:16:08;;;;;;;22.05;18.77;;;10.80;99.90;;;;;;4901031;28;89941;-32
2022/11/16 09:18:34;;;;;;;19.40;17.50;;;10.80;99.90;;;;;;4901640;28;90555;-32
2022/11/16 09:21:00;;;;;;;20.08;18.08;;;10.90;99.90;;;;;;4900713;28;90639;-33
2022/11/16 09:23:26;;;;;;;21.40;18.27;;;10.90;99.90;;;;;;4900707;28;89749;-32
2022/11/16 09:25:52;;;;;;;19.00;17.13;;;11.00;99.90;;;;;;4901187;28;89143;-33
2022/11/16 09:28:19;;;;;;;19.17;17.20;;;11.00;99.90;;;;;;4900818;28;90149;-32
2022/11/16 09:30:46;;;;;;;17.75;15.75;;;11.00;99.90;;;;;;4900911;28;89990;-34
2022/11/16 09:33:12;;;;;;;19.60;17.70;;;11.00;99.90;;;;;;4900073;28;89818;-32
2022/11/16 09:35:38;;;;;;;20.92;18.85;;;11.00;99.90;;;;;;4899568;28;89768;-31
2022/11/16 09:38:04;;;;;;;21.25;17.95;;;11.10;99.90;;;;;;4901356;28;89933;-34
2022/11/16 09:40:39;;;;;;;20.83;18.95;;;11.10;99.90;;;;;;4900451;28;89502;-33
2022/11/16 09:43:27;;;;;;;19.63;17.52;;;11.10;99.90;;;;;;4901087;28;89569;-33
2022/11/16 09:46:11;;;;;;;20.70;18.30;;;11.20;99.90;;;;;;4900634;28;89486;-32
2022/11/16 09:48:38;;;;;;;20.92;18.80;;;11.20;99.90;;;;;;4900052;28;90235;-33
2022/11/16 09:51:08;;;;;;;22.30;19.25;;;11.20;99.90;;;;;;4900309;28;89760;-31
2022/11/16 09:53:49;;;;;;;21.85;19.65;;;11.20;99.90;;;;;;4900521;28;89541;-32
2022/11/16 09:56:24;;;;;;;20.40;16.73;;;11.20;99.90;;;;;;4900738;28;89119;-32
2022/11/16 09:59:01;;;;;;;19.45;17.52;;;11.20;99.90;;;;;;4900512;28;90320;-32
2022/11/16 10:01:33;;;;;;;22.98;19.85;;;11.30;99.90;;;;;;4900419;28;89739;-34
2022/11/16 10:04:07;;;;;;;22.60;20.38;;;11.40;99.90;;;;;;4900969;28;89722;-33
2022/11/16 10:07:04;;;;;;;21.02;18.35;;;11.40;99.90;;;;;;4900335;28;88134;-32
2022/11/16 10:09:30;;;;;;;22.17;18.50;;;11.40;99.90;;;;;;4900011;28;90353;-32
2022/11/16 10:12:05;;;;;;;17.65;15.98;;;11.50;99.90;;;;;;4899190;28;90581;-32
2022/11/16 10:14:37;;;;;;;20.38;18.27;;;11.50;99.90;;;;;;4900532;28;90676;-34
2022/11/16 10:17:05;;;;;;;20.30;16.48;;;11.50;99.90;;;;;;4900974;28;88606;-34
2022/11/16 10:19:34;;;;;;;17.42;15.55;;;11.60;99.90;;;;;;4900295;28;90271;-33
2022/11/16 10:22:13;;;;;;;22.65;17.67;;;11.70;99.90;;;;;;4902490;28;89386;-32
2022/11/16 10:25:10;;;;;;;19.55;14.57;;;11.70;99.90;;;;;;4903642;28;88798;-33
2022/11/16 10:27:50;;;;;;;18.38;15.57;;;11.70;99.90;;;;;;4903709;28;89464;-32
2022/11/16 10:30:18;;;;;;;16.92;14.80;;;11.70;99.90;;;;;;4904273;28;90367;-32
2022/11/16 10:33:19;;;;;;;22.80;14.98;;;11.80;99.90;;;;;;4903461;28;91768;-31
2022/11/16 10:35:52;;;;;;;24.23;15.50;;;11.80;99.90;;;;;;4864915;28;89795;-33
2022/11/16 10:38:22;;;;;;;15.32;13.05;;;11.90;99.90;;;;;;4899023;28;89326;-31
2022/11/16 10:40:56;;;;;;;17.88;13.02;;;11.90;99.90;;;;;;4903168;28;91089;-31
2022/11/16 10:43:28;;;;;;;14.90;12.40;;;12.00;99.90;;;;;;4903988;28;88970;-33
2022/11/16 10:46:23;;;;;;;15.50;11.88;;;12.00;99.90;;;;;;4902971;28;88568;-33
2022/11/16 10:49:23;;;;;;;13.80;10.88;;;12.00;99.90;;;;;;4903670;28;88757;-32
2022/11/16 10:51:48;;;;;;;14.10;12.63;;;12.00;99.90;;;;;;4903238;28;91280;-33
2022/11/16 10:54:15;;;;;;;12.70;10.98;;;12.10;99.90;;;;;;4903646;28;90500;-32
2022/11/16 10:56:44;;;;;;;12.20;9.35;;;12.20;99.90;;;;;;4903105;28;91063;-31
2022/11/16 10:59:20;;;;;;;13.05;10.52;;;12.20;99.90;;;;;;4904098;28;88430;-32
2022/11/16 11:01:56;;;;;;;12.32;10.13;;;12.20;99.90;;;;;;4903340;28;90388;-32
2022/11/16 11:04:30;;;;;;;14.40;10.38;;;12.20;99.90;;;;;;4902697;28;91519;-33
2022/11/16 11:07:23;;;;;;;9.77;8.63;;;12.20;99.90;;;;;;4902525;28;89348;-32
2022/11/16 11:09:53;;;;;;;10.45;8.68;;;12.20;99.90;;;;;;4904145;28;88129;-33
2022/11/16 11:12:38;;;;;;;20.85;9.70;;;12.20;99.90;;;;;;4903408;28;90320;-33
2022/11/16 11:15:10;;;;;;;11.75;8.23;;;12.10;99.90;;;;;;4903409;28;89940;-31
2022/11/16 11:17:41;;;;;;;11.15;8.57;;;12.10;99.90;;;;;;4902981;28;90494;-33
2022/11/16 11:20:23;;;;;;;10.25;7.45;;;12.10;99.90;;;;;;4904304;28;89854;-32
2022/11/16 11:23:01;;;;;;;12.50;7.88;;;12.10;99.90;;;;;;4904016;28;90370;-31
2022/11/16 11:25:36;;;;;;;12.02;8.57;;;12.10;99.90;;;;;;4904176;28;89597;-33
2022/11/16 11:28:19;;;;;;;8.82;7.93;;;12.10;99.90;;;;;;4902888;28;88624;-33
2022/11/16 11:30:54;;;;;;;10.30;6.95;;;12.10;99.90;;;;;;4902046;28;88886;-32
2022/11/16 11:33:22;;;;;;;10.98;7.22;;;12.20;99.90;;;;;;4902251;28;90248;-34
2022/11/16 11:35:59;;;;;;;14.05;7.28;;;12.10;99.90;;;;;;4903433;28;89966;-32
2022/11/16 11:38:25;;;;;;;10.18;6.30;;;12.10;99.90;;;;;;4900736;28;89598;-33
2022/11/16 11:41:00;;;;;;;8.70;5.60;;;12.00;99.90;;;;;;4901378;28;89788;-31
2022/11/16 11:43:26;;;;;;;12.82;7.25;;;12.00;99.90;;;;;;4900027;28;91271;-32
2022/11/16 11:46:07;;;;;;;12.10;7.22;;;12.00;99.90;;;;;;4901453;28;90833;-32
2022/11/16 11:48:38;;;;;;;14.18;6.75;;;12.10;99.90;;;;;;4900567;28;89693;-32
2022/11/16 11:51:12;;;;;;;19.58;6.90;;;12.10;99.90;;;;;;4901031;28;89395;-32
2022/11/16 11:53:56;;;;;;;6.72;5.20;;;12.20;99.90;;;;;;4901134;28;90203;-33
2022/11/16 11:56:22;;;;;;;13.23;5.53;;;12.20;99.90;;;;;;4900214;28;90684;-34
2022/11/16 11:58:50;;;;;;;5.60;5.10;;;12.30;99.90;;;;;;4901177;28;91205;-34
2022/11/16 12:01:42;;;;;;;9.00;6.20;;;12.30;99.90;;;;;;4901326;28;89240;-32
2022/11/16 12:04:33;;;;;;;9.55;5.45;;;12.30;99.90;;;;;;4900166;28;90125;-32
2022/11/16 12:07:11;;;;;;;10.05;6.05;;;12.50;99.90;;;;;;4900258;28;89326;-33
2022/11/16 12:09:42;;;;;;;10.98;5.65;;;12.60;99.90;;;;;;4900325;28;89800;-32
2022/11/16 12:12:31;;;;;;;9.23;5.15;;;12.80;99.90;;;;;;4900156;28;89034;-32
2022/11/16 12:15:31;;;;;;;7.22;4.95;;;13.00;99.90;;;;;;4896397;28;92435;-34
2022/11/16 12:18:12;;;;;;;5.97;4.07;;;13.10;99.90;;;;;;4900520;28;91418;-34
2022/11/16 12:21:00;;;;;;;6.05;4.05;;;13.30;99.90;;;;;;4900884;28;89475;-32
2022/11/16 12:23:49;;;;;;;6.90;4.00;;;13.30;99.90;;;;;;4900323;28;89275;-33
2022/11/16 12:26:49;;;;;;;19.88;4.90;;;13.40;99.90;;;;;;4900377;28;90411;-34
2022/11/16 12:29:28;;;;;;;7.45;4.13;;;13.40;99.90;;;;;;4900049;28;89536;-33
2022/11/16 12:32:29;;;;;;;10.80;4.68;;;13.40;99.90;;;;;;4900079;28;90323;-32
2022/11/16 12:35:03;;;;;;;10.35;4.25;;;13.30;99.90;;;;;;4900510;28;88057;-32
2022/11/16 12:38:09;;;;;;;12.60;4.07;;;13.30;99.90;;;;;;4898130;28;89945;-33
2022/11/16 12:40:52;;;;;;;10.75;4.95;;;13.30;99.90;;;;;;4900284;28;90051;-32
2022/11/16 12:43:32;;;;;;;11.88;5.43;;;13.40;99.90;;;;;;4900121;28;89428;-33
2022/11/16 12:46:22;;;;;;;4.82;3.83;;;13.40;99.90;;;;;;4898963;28;88424;-33
2022/11/16 12:49:06;;;;;;;5.20;3.72;;;13.40;99.90;;;;;;4899326;28;89797;-32
2022/11/16 12:51:56;;;;;;;5.97;3.28;;;13.40;99.90;;;;;;4898813;28;90863;-32
2022/11/16 12:54:22;;;;;;;4.10;2.97;;;13.40;99.90;;;;;;4899060;28;90308;-32
2022/11/16 12:56:47;;;;;;;10.25;4.07;;;13.30;99.90;;;;;;4899983;28;88786;-34
2022/11/16 12:59:23;;;;;;;4.88;3.38;;;13.20;99.90;;;;;;4899305;28;90093;-32
2022/11/16 13:02:11;;;;;;;11.75;3.88;;;13.10;99.90;;;;;;4898494;28;89520;-32
2022/11/16 13:04:54;;;;;;;6.93;3.78;;;13.00;99.90;;;;;;4898969;28;89638;-32
2022/11/16 13:07:29;;;;;;;7.25;4.03;;;12.90;99.90;;;;;;4899907;28;88999;-32
2022/11/16 13:10:01;;;;;;;5.50;2.80;;;12.80;99.90;;;;;;4899482;28;90285;-34
2022/11/16 13:12:30;;;;;;;6.93;3.70;;;12.80;99.90;;;;;;4899087;28;90907;-32
2022/11/16 13:14:58;;;;;;;8.07;3.25;;;12.80;99.90;;;;;;4897874;28;90320;-32
2022/11/16 13:17:29;;;;;;;7.07;3.50;;;12.70;99.90;;;;;;4891833;28;89208;-33
2022/11/16 13:20:20;;;;;;;5.03;2.80;;;12.80;99.90;;;;;;4899149;28;88967;-34
2022/11/16 13:23:01;;;;;;;5.35;3.40;;;12.80;99.90;;;;;;4898905;28;89142;-33
2022/11/16 13:25:47;;;;;;;6.35;3.15;;;12.70;99.90;;;;;;4898807;28;89243;-33
2022/11/16 13:28:13;;;;;;;7.35;3.40;;;12.70;99.90;;;;;;4896050;28;89896;-32
2022/11/16 13:31:19;;;;;;;7.25;3.50;;;12.60;99.90;;;;;;4898248;28;90526;-33
2022/11/16 13:33:48;;;;;;;7.85;2.78;;;12.60;99.90;;;;;;4897886;28;89970;-32
2022/11/16 13:36:38;;;;;;;5.18;2.85;;;12.60;99.90;;;;;;4898111;28;90015;-33
2022/11/16 13:39:06;;;;;;;13.60;3.55;;;12.60;99.90;;;;;;4898480;28;88592;-32